sensor_id;sensor_type;location;lat;lon;timestamp;P1;durP1;ratioP1;P2;durP2;ratioP2
39958;SDS011;25639;53.634;9.880;2023-03-14T00:01:57;15.43;;;4.68;;
39958;SDS011;25639;53.634;9.880;2023-03-14T00:04:22;12.00;;;2.78;;
39958;SDS011;25639;53.634;9.880;2023-03-14T00:06:48;9.55;;;2.53;;
39958;SDS011;25639;53.634;9.880;2023-03-14T00:09:14;10.43;;;3.10;;
39958;SDS011;25639;53.634;9.880;2023-03-14T00:11:40;10.13;;;3.03;;
39958;SDS011;25639;53.634;9.880;2023-03-14T00:14:05;11.35;;;3.08;;
39958;SDS011;25639;53.634;9.880;2023-03-14T00:16:31;12.00;;;3.38;;
39958;SDS011;25639;53.634;9.880;2023-03-14T00:18:57;14.00;;;3.90;;
39958;SDS011;25639;53.634;9.880;2023-03-14T00:21:24;10.65;;;3.33;;
39958;SDS011;25639;53.634;9.880;2023-03-14T00:23:49;10.23;;;3.60;;
39958;SDS011;25639;53.634;9.880;2023-03-14T00:26:15;11.73;;;3.40;;
39958;SDS011;25639;53.634;9.880;2023-03-14T00:28:42;8.68;;;3.22;;
39958;SDS011;25639;53.634;9.880;2023-03-14T00:31:09;9.45;;;3.10;;
39958;SDS011;25639;53.634;9.880;2023-03-14T00:33:36;14.50;;;3.42;;
39958;SDS011;25639;53.634;9.880;2023-03-14T00:36:03;15.40;;;3.47;;
39958;SDS011;25639;53.634;9.880;2023-03-14T00:38:36;15.38;;;3.78;;
39958;SDS011;25639;53.634;9.880;2023-03-14T00:41:03;17.58;;;3.45;;
39958;SDS011;25639;53.634;9.880;2023-03-14T00:43:30;9.75;;;3.05;;
39958;SDS011;25639;53.634;9.880;2023-03-14T00:45:56;9.75;;;3.35;;
39958;SDS011;25639;53.634;9.880;2023-03-14T00:48:22;14.15;;;2.97;;
39958;SDS011;25639;53.634;9.880;2023-03-14T00:50:47;6.65;;;3.10;;
39958;SDS011;25639;53.634;9.880;2023-03-14T00:53:13;8.95;;;2.70;;
39958;SDS011;25639;53.634;9.880;2023-03-14T00:55:39;11.80;;;2.65;;
39958;SDS011;25639;53.634;9.880;2023-03-14T00:58:07;9.20;;;2.75;;
39958;SDS011;25639;53.634;9.880;2023-03-14T01:00:32;19.23;;;3.40;;
39958;SDS011;25639;53.634;9.880;2023-03-14T01:02:58;12.57;;;2.65;;
39958;SDS011;25639;53.634;9.880;2023-03-14T01:05:23;14.90;;;4.05;;
39958;SDS011;25639;53.634;9.880;2023-03-14T01:07:48;15.07;;;3.20;;
39958;SDS011;25639;53.634;9.880;2023-03-14T01:10:14;13.55;;;3.03;;
39958;SDS011;25639;53.634;9.880;2023-03-14T01:12:39;12.73;;;2.90;;
39958;SDS011;25639;53.634;9.880;2023-03-14T01:15:05;14.57;;;3.80;;
39958;SDS011;25639;53.634;9.880;2023-03-14T01:17:31;19.38;;;3.60;;
39958;SDS011;25639;53.634;9.880;2023-03-14T01:19:56;11.98;;;3.22;;
39958;SDS011;25639;53.634;9.880;2023-03-14T01:22:25;16.33;;;3.05;;
39958;SDS011;25639;53.634;9.880;2023-03-14T01:24:50;15.57;;;3.28;;
39958;SDS011;25639;53.634;9.880;2023-03-14T01:27:16;18.30;;;3.05;;
39958;SDS011;25639;53.634;9.880;2023-03-14T01:29:41;11.23;;;3.33;;
39958;SDS011;25639;53.634;9.880;2023-03-14T01:32:06;15.93;;;3.40;;
39958;SDS011;25639;53.634;9.880;2023-03-14T01:34:32;11.60;;;3.47;;
39958;SDS011;25639;53.634;9.880;2023-03-14T01:36:57;12.73;;;3.05;;
39958;SDS011;25639;53.634;9.880;2023-03-14T01:39:22;15.02;;;3.72;;
39958;SDS011;25639;53.634;9.880;2023-03-14T01:41:48;9.82;;;2.85;;
39958;SDS011;25639;53.634;9.880;2023-03-14T01:44:13;19.83;;;2.90;;
39958;SDS011;25639;53.634;9.880;2023-03-14T01:46:39;14.95;;;2.92;;
39958;SDS011;25639;53.634;9.880;2023-03-14T01:54:18;13.63;;;3.15;;
39958;SDS011;25639;53.634;9.880;2023-03-14T01:56:52;13.43;;;2.63;;
39958;SDS011;25639;53.634;9.880;2023-03-14T01:59:20;13.82;;;3.50;;
39958;SDS011;25639;53.634;9.880;2023-03-14T02:01:46;10.93;;;2.88;;
39958;SDS011;25639;53.634;9.880;2023-03-14T02:04:14;6.70;;;2.65;;
39958;SDS011;25639;53.634;9.880;2023-03-14T02:07:00;21.90;;;3.45;;
39958;SDS011;25639;53.634;9.880;2023-03-14T02:09:26;11.95;;;3.22;;
39958;SDS011;25639;53.634;9.880;2023-03-14T02:11:51;12.88;;;4.05;;
39958;SDS011;25639;53.634;9.880;2023-03-14T02:14:34;13.88;;;3.28;;
39958;SDS011;25639;53.634;9.880;2023-03-14T02:17:01;13.00;;;3.08;;
39958;SDS011;25639;53.634;9.880;2023-03-14T02:19:40;11.57;;;3.35;;
39958;SDS011;25639;53.634;9.880;2023-03-14T02:22:09;10.30;;;3.15;;
39958;SDS011;25639;53.634;9.880;2023-03-14T02:27:39;13.65;;;3.58;;
39958;SDS011;25639;53.634;9.880;2023-03-14T02:30:12;10.77;;;3.78;;
39958;SDS011;25639;53.634;9.880;2023-03-14T02:32:41;10.63;;;3.40;;
39958;SDS011;25639;53.634;9.880;2023-03-14T02:35:12;16.60;;;4.05;;
39958;SDS011;25639;53.634;9.880;2023-03-14T02:37:48;15.40;;;3.35;;
39958;SDS011;25639;53.634;9.880;2023-03-14T02:42:42;10.93;;;3.55;;
39958;SDS011;25639;53.634;9.880;2023-03-14T02:47:32;14.32;;;3.47;;
39958;SDS011;25639;53.634;9.880;2023-03-14T02:50:01;12.80;;;4.43;;
39958;SDS011;25639;53.634;9.880;2023-03-14T02:52:31;12.15;;;3.90;;
39958;SDS011;25639;53.634;9.880;2023-03-14T02:54:57;13.60;;;4.18;;
39958;SDS011;25639;53.634;9.880;2023-03-14T02:57:22;15.02;;;3.58;;
39958;SDS011;25639;53.634;9.880;2023-03-14T02:59:47;11.32;;;3.90;;
39958;SDS011;25639;53.634;9.880;2023-03-14T03:02:12;12.68;;;3.58;;
39958;SDS011;25639;53.634;9.880;2023-03-14T03:04:38;13.77;;;4.32;;
39958;SDS011;25639;53.634;9.880;2023-03-14T03:07:03;13.20;;;3.30;;
39958;SDS011;25639;53.634;9.880;2023-03-14T03:09:28;12.73;;;3.92;;
39958;SDS011;25639;53.634;9.880;2023-03-14T03:11:54;13.18;;;4.40;;
39958;SDS011;25639;53.634;9.880;2023-03-14T03:14:19;10.48;;;3.83;;
39958;SDS011;25639;53.634;9.880;2023-03-14T03:16:44;12.18;;;3.60;;
39958;SDS011;25639;53.634;9.880;2023-03-14T03:19:10;15.35;;;3.65;;
39958;SDS011;25639;53.634;9.880;2023-03-14T03:21:35;15.60;;;3.65;;
39958;SDS011;25639;53.634;9.880;2023-03-14T03:24:01;15.13;;;3.67;;
39958;SDS011;25639;53.634;9.880;2023-03-14T03:26:27;7.68;;;3.15;;
39958;SDS011;25639;53.634;9.880;2023-03-14T03:28:54;11.23;;;3.95;;
39958;SDS011;25639;53.634;9.880;2023-03-14T03:31:49;13.88;;;3.67;;
39958;SDS011;25639;53.634;9.880;2023-03-14T03:34:14;11.73;;;3.83;;
39958;SDS011;25639;53.634;9.880;2023-03-14T03:36:39;11.52;;;3.60;;
39958;SDS011;25639;53.634;9.880;2023-03-14T03:39:06;6.90;;;4.05;;
39958;SDS011;25639;53.634;9.880;2023-03-14T03:41:31;11.57;;;3.30;;
39958;SDS011;25639;53.634;9.880;2023-03-14T03:43:57;11.07;;;3.50;;
39958;SDS011;25639;53.634;9.880;2023-03-14T03:46:22;14.18;;;3.88;;
39958;SDS011;25639;53.634;9.880;2023-03-14T03:48:48;13.52;;;3.75;;
39958;SDS011;25639;53.634;9.880;2023-03-14T03:51:33;9.25;;;3.22;;
39958;SDS011;25639;53.634;9.880;2023-03-14T03:53:59;12.95;;;3.42;;
39958;SDS011;25639;53.634;9.880;2023-03-14T03:56:29;9.45;;;3.25;;
39958;SDS011;25639;53.634;9.880;2023-03-14T03:58:56;7.60;;;3.30;;
39958;SDS011;25639;53.634;9.880;2023-03-14T04:01:21;10.75;;;3.97;;
39958;SDS011;25639;53.634;9.880;2023-03-14T04:03:47;10.98;;;3.22;;
39958;SDS011;25639;53.634;9.880;2023-03-14T04:06:13;11.73;;;3.83;;
39958;SDS011;25639;53.634;9.880;2023-03-14T04:08:38;13.65;;;3.67;;
39958;SDS011;25639;53.634;9.880;2023-03-14T04:11:05;10.60;;;3.50;;
39958;SDS011;25639;53.634;9.880;2023-03-14T04:13:31;8.57;;;3.35;;
39958;SDS011;25639;53.634;9.880;2023-03-14T04:15:56;10.65;;;3.55;;
39958;SDS011;25639;53.634;9.880;2023-03-14T04:18:22;12.30;;;3.72;;
39958;SDS011;25639;53.634;9.880;2023-03-14T04:20:53;10.68;;;3.67;;
39958;SDS011;25639;53.634;9.880;2023-03-14T04:23:20;16.30;;;3.50;;
39958;SDS011;25639;53.634;9.880;2023-03-14T04:25:57;10.57;;;3.42;;
39958;SDS011;25639;53.634;9.880;2023-03-14T04:28:22;11.25;;;3.65;;
39958;SDS011;25639;53.634;9.880;2023-03-14T04:30:51;8.93;;;3.28;;
39958;SDS011;25639;53.634;9.880;2023-03-14T04:33:16;11.80;;;3.13;;
39958;SDS011;25639;53.634;9.880;2023-03-14T04:35:43;12.73;;;3.95;;
39958;SDS011;25639;53.634;9.880;2023-03-14T04:38:09;14.88;;;3.55;;
39958;SDS011;25639;53.634;9.880;2023-03-14T04:40:38;8.73;;;1.70;;
39958;SDS011;25639;53.634;9.880;2023-03-14T04:43:07;6.75;;;1.67;;
39958;SDS011;25639;53.634;9.880;2023-03-14T04:45:35;7.72;;;1.20;;
39958;SDS011;25639;53.634;9.880;2023-03-14T04:48:00;3.45;;;1.27;;
39958;SDS011;25639;53.634;9.880;2023-03-14T04:50:26;6.32;;;1.10;;
39958;SDS011;25639;53.634;9.880;2023-03-14T04:52:51;3.13;;;1.13;;
39958;SDS011;25639;53.634;9.880;2023-03-14T04:55:16;5.13;;;1.05;;
39958;SDS011;25639;53.634;9.880;2023-03-14T04:57:42;6.25;;;1.35;;
39958;SDS011;25639;53.634;9.880;2023-03-14T05:00:07;3.90;;;1.02;;
39958;SDS011;25639;53.634;9.880;2023-03-14T05:02:33;16.65;;;1.60;;
39958;SDS011;25639;53.634;9.880;2023-03-14T05:04:59;4.88;;;1.20;;
39958;SDS011;25639;53.634;9.880;2023-03-14T05:07:25;3.05;;;1.10;;
39958;SDS011;25639;53.634;9.880;2023-03-14T05:09:50;9.05;;;1.65;;
39958;SDS011;25639;53.634;9.880;2023-03-14T05:12:15;4.97;;;1.27;;
39958;SDS011;25639;53.634;9.880;2023-03-14T05:14:41;4.25;;;1.25;;
39958;SDS011;25639;53.634;9.880;2023-03-14T05:17:06;7.30;;;1.48;;
39958;SDS011;25639;53.634;9.880;2023-03-14T05:19:32;7.38;;;1.65;;
39958;SDS011;25639;53.634;9.880;2023-03-14T05:21:57;7.60;;;1.80;;
39958;SDS011;25639;53.634;9.880;2023-03-14T05:24:23;4.78;;;1.58;;
39958;SDS011;25639;53.634;9.880;2023-03-14T05:26:48;5.05;;;1.70;;
39958;SDS011;25639;53.634;9.880;2023-03-14T05:29:13;6.32;;;1.70;;
39958;SDS011;25639;53.634;9.880;2023-03-14T05:31:39;4.18;;;2.03;;
39958;SDS011;25639;53.634;9.880;2023-03-14T05:34:04;4.43;;;1.52;;
39958;SDS011;25639;53.634;9.880;2023-03-14T05:36:29;5.25;;;2.10;;
39958;SDS011;25639;53.634;9.880;2023-03-14T05:38:55;6.05;;;2.05;;
39958;SDS011;25639;53.634;9.880;2023-03-14T05:41:23;4.97;;;2.20;;
39958;SDS011;25639;53.634;9.880;2023-03-14T05:43:48;6.13;;;2.35;;
39958;SDS011;25639;53.634;9.880;2023-03-14T05:46:13;8.13;;;2.28;;
39958;SDS011;25639;53.634;9.880;2023-03-14T05:48:39;6.97;;;2.22;;
39958;SDS011;25639;53.634;9.880;2023-03-14T05:51:04;6.60;;;2.50;;
39958;SDS011;25639;53.634;9.880;2023-03-14T05:53:29;7.85;;;2.80;;
39958;SDS011;25639;53.634;9.880;2023-03-14T05:55:55;6.75;;;3.00;;
39958;SDS011;25639;53.634;9.880;2023-03-14T05:58:21;7.28;;;3.22;;
39958;SDS011;25639;53.634;9.880;2023-03-14T06:00:46;13.52;;;3.88;;
39958;SDS011;25639;53.634;9.880;2023-03-14T06:03:12;10.70;;;4.22;;
39958;SDS011;25639;53.634;9.880;2023-03-14T06:05:37;14.10;;;4.65;;
39958;SDS011;25639;53.634;9.880;2023-03-14T06:08:02;15.88;;;5.30;;
39958;SDS011;25639;53.634;9.880;2023-03-14T06:10:28;16.08;;;5.10;;
39958;SDS011;25639;53.634;9.880;2023-03-14T06:12:53;13.02;;;5.80;;
39958;SDS011;25639;53.634;9.880;2023-03-14T06:15:19;13.60;;;6.10;;
39958;SDS011;25639;53.634;9.880;2023-03-14T06:17:44;12.80;;;6.80;;
39958;SDS011;25639;53.634;9.880;2023-03-14T06:20:09;12.35;;;6.50;;
39958;SDS011;25639;53.634;9.880;2023-03-14T06:22:35;13.32;;;6.72;;
39958;SDS011;25639;53.634;9.880;2023-03-14T06:25:01;14.00;;;7.53;;
39958;SDS011;25639;53.634;9.880;2023-03-14T06:27:26;17.27;;;7.85;;
39958;SDS011;25639;53.634;9.880;2023-03-14T06:29:52;14.32;;;7.30;;
39958;SDS011;25639;53.634;9.880;2023-03-14T06:32:17;17.63;;;8.07;;
39958;SDS011;25639;53.634;9.880;2023-03-14T06:34:43;20.63;;;8.80;;
39958;SDS011;25639;53.634;9.880;2023-03-14T06:37:08;17.85;;;7.90;;
39958;SDS011;25639;53.634;9.880;2023-03-14T06:39:34;20.02;;;8.52;;
39958;SDS011;25639;53.634;9.880;2023-03-14T06:41:59;20.13;;;8.75;;
39958;SDS011;25639;53.634;9.880;2023-03-14T06:44:24;17.98;;;8.25;;
39958;SDS011;25639;53.634;9.880;2023-03-14T06:46:49;18.55;;;8.45;;
39958;SDS011;25639;53.634;9.880;2023-03-14T06:49:15;17.33;;;7.47;;
39958;SDS011;25639;53.634;9.880;2023-03-14T06:51:40;18.25;;;7.97;;
39958;SDS011;25639;53.634;9.880;2023-03-14T06:54:05;18.33;;;8.02;;
39958;SDS011;25639;53.634;9.880;2023-03-14T06:56:30;16.42;;;7.22;;
39958;SDS011;25639;53.634;9.880;2023-03-14T06:58:56;17.35;;;6.38;;
39958;SDS011;25639;53.634;9.880;2023-03-14T07:01:23;19.38;;;6.53;;
39958;SDS011;25639;53.634;9.880;2023-03-14T07:03:50;15.43;;;6.30;;
39958;SDS011;25639;53.634;9.880;2023-03-14T07:06:16;17.05;;;6.07;;
39958;SDS011;25639;53.634;9.880;2023-03-14T07:08:41;12.63;;;5.47;;
39958;SDS011;25639;53.634;9.880;2023-03-14T07:11:07;14.38;;;6.22;;
39958;SDS011;25639;53.634;9.880;2023-03-14T07:13:32;14.75;;;4.85;;
39958;SDS011;25639;53.634;9.880;2023-03-14T07:15:58;20.40;;;6.75;;
39958;SDS011;25639;53.634;9.880;2023-03-14T07:18:23;16.13;;;4.75;;
39958;SDS011;25639;53.634;9.880;2023-03-14T07:20:49;11.05;;;4.30;;
39958;SDS011;25639;53.634;9.880;2023-03-14T07:23:15;12.05;;;4.10;;
39958;SDS011;25639;53.634;9.880;2023-03-14T07:25:40;14.13;;;3.75;;
39958;SDS011;25639;53.634;9.880;2023-03-14T07:28:05;13.68;;;3.47;;
39958;SDS011;25639;53.634;9.880;2023-03-14T07:30:31;13.40;;;3.10;;
39958;SDS011;25639;53.634;9.880;2023-03-14T07:32:56;10.07;;;2.88;;
39958;SDS011;25639;53.634;9.880;2023-03-14T07:35:21;13.40;;;2.65;;
39958;SDS011;25639;53.634;9.880;2023-03-14T07:37:46;11.73;;;3.08;;
39958;SDS011;25639;53.634;9.880;2023-03-14T07:40:12;8.50;;;2.47;;
39958;SDS011;25639;53.634;9.880;2023-03-14T07:42:40;8.13;;;3.10;;
39958;SDS011;25639;53.634;9.880;2023-03-14T07:45:06;14.50;;;2.88;;
39958;SDS011;25639;53.634;9.880;2023-03-14T07:47:32;11.10;;;2.45;;
39958;SDS011;25639;53.634;9.880;2023-03-14T07:49:57;14.52;;;2.90;;
39958;SDS011;25639;53.634;9.880;2023-03-14T07:52:22;10.10;;;2.53;;
39958;SDS011;25639;53.634;9.880;2023-03-14T07:54:49;11.77;;;2.60;;
39958;SDS011;25639;53.634;9.880;2023-03-14T07:57:14;10.70;;;2.63;;
39958;SDS011;25639;53.634;9.880;2023-03-14T07:59:39;9.10;;;3.05;;
39958;SDS011;25639;53.634;9.880;2023-03-14T08:02:04;7.43;;;3.13;;
39958;SDS011;25639;53.634;9.880;2023-03-14T08:04:34;8.85;;;2.42;;
39958;SDS011;25639;53.634;9.880;2023-03-14T08:06:59;10.27;;;3.00;;
39958;SDS011;25639;53.634;9.880;2023-03-14T08:09:25;10.38;;;2.83;;
39958;SDS011;25639;53.634;9.880;2023-03-14T08:11:50;11.40;;;3.00;;
39958;SDS011;25639;53.634;9.880;2023-03-14T08:14:15;7.55;;;2.88;;
39958;SDS011;25639;53.634;9.880;2023-03-14T08:16:40;11.57;;;2.70;;
39958;SDS011;25639;53.634;9.880;2023-03-14T08:19:06;10.27;;;2.60;;
39958;SDS011;25639;53.634;9.880;2023-03-14T08:21:31;7.90;;;2.42;;
39958;SDS011;25639;53.634;9.880;2023-03-14T08:23:56;9.98;;;2.50;;
39958;SDS011;25639;53.634;9.880;2023-03-14T08:26:22;8.35;;;2.53;;
39958;SDS011;25639;53.634;9.880;2023-03-14T08:28:47;7.97;;;2.10;;
39958;SDS011;25639;53.634;9.880;2023-03-14T08:31:12;5.65;;;2.20;;
39958;SDS011;25639;53.634;9.880;2023-03-14T08:33:38;6.80;;;2.10;;
39958;SDS011;25639;53.634;9.880;2023-03-14T08:36:03;5.75;;;2.17;;
39958;SDS011;25639;53.634;9.880;2023-03-14T08:38:28;7.47;;;2.35;;
39958;SDS011;25639;53.634;9.880;2023-03-14T08:41:00;6.40;;;2.00;;
39958;SDS011;25639;53.634;9.880;2023-03-14T08:43:27;6.15;;;1.90;;
39958;SDS011;25639;53.634;9.880;2023-03-14T08:45:53;7.85;;;2.13;;
39958;SDS011;25639;53.634;9.880;2023-03-14T08:48:25;8.40;;;2.22;;
39958;SDS011;25639;53.634;9.880;2023-03-14T08:50:50;9.85;;;2.50;;
39958;SDS011;25639;53.634;9.880;2023-03-14T08:53:15;6.72;;;2.10;;
39958;SDS011;25639;53.634;9.880;2023-03-14T08:55:41;10.05;;;2.58;;
39958;SDS011;25639;53.634;9.880;2023-03-14T08:58:06;11.15;;;2.75;;
39958;SDS011;25639;53.634;9.880;2023-03-14T09:00:31;6.80;;;2.60;;
39958;SDS011;25639;53.634;9.880;2023-03-14T09:02:56;11.15;;;3.05;;
39958;SDS011;25639;53.634;9.880;2023-03-14T09:05:22;11.75;;;3.25;;
39958;SDS011;25639;53.634;9.880;2023-03-14T09:07:47;11.00;;;3.38;;
39958;SDS011;25639;53.634;9.880;2023-03-14T09:10:12;16.05;;;3.70;;
39958;SDS011;25639;53.634;9.880;2023-03-14T09:12:38;10.50;;;3.78;;
39958;SDS011;25639;53.634;9.880;2023-03-14T09:15:03;10.95;;;3.50;;
39958;SDS011;25639;53.634;9.880;2023-03-14T09:17:29;12.98;;;3.95;;
39958;SDS011;25639;53.634;9.880;2023-03-14T09:19:54;12.13;;;3.25;;
39958;SDS011;25639;53.634;9.880;2023-03-14T09:22:20;13.40;;;3.80;;
39958;SDS011;25639;53.634;9.880;2023-03-14T09:24:46;10.88;;;3.70;;
39958;SDS011;25639;53.634;9.880;2023-03-14T09:27:11;13.57;;;4.05;;
39958;SDS011;25639;53.634;9.880;2023-03-14T09:29:37;10.20;;;3.65;;
39958;SDS011;25639;53.634;9.880;2023-03-14T09:32:02;11.63;;;3.72;;
39958;SDS011;25639;53.634;9.880;2023-03-14T09:34:28;12.85;;;3.80;;
39958;SDS011;25639;53.634;9.880;2023-03-14T09:36:53;16.60;;;3.70;;
39958;SDS011;25639;53.634;9.880;2023-03-14T09:39:19;12.50;;;3.80;;
39958;SDS011;25639;53.634;9.880;2023-03-14T09:41:46;15.25;;;4.28;;
39958;SDS011;25639;53.634;9.880;2023-03-14T09:44:14;2.38;;;1.10;;
39958;SDS011;25639;53.634;9.880;2023-03-14T09:46:46;3.28;;;0.82;;
39958;SDS011;25639;53.634;9.880;2023-03-14T09:49:27;3.75;;;1.00;;
39958;SDS011;25639;53.634;9.880;2023-03-14T09:51:56;4.53;;;1.20;;
39958;SDS011;25639;53.634;9.880;2023-03-14T09:57:00;7.43;;;1.58;;
39958;SDS011;25639;53.634;9.880;2023-03-14T09:59:27;3.70;;;1.17;;
39958;SDS011;25639;53.634;9.880;2023-03-14T10:01:55;3.47;;;1.30;;
39958;SDS011;25639;53.634;9.880;2023-03-14T10:04:23;8.63;;;1.30;;
39958;SDS011;25639;53.634;9.880;2023-03-14T10:06:49;11.18;;;2.05;;
39958;SDS011;25639;53.634;9.880;2023-03-14T10:09:21;7.80;;;1.30;;
39958;SDS011;25639;53.634;9.880;2023-03-14T10:11:51;4.75;;;1.17;;
39958;SDS011;25639;53.634;9.880;2023-03-14T10:14:30;1.77;;;0.73;;
39958;SDS011;25639;53.634;9.880;2023-03-14T10:17:07;4.43;;;0.70;;
39958;SDS011;25639;53.634;9.880;2023-03-14T10:19:35;1.52;;;0.60;;
39958;SDS011;25639;53.634;9.880;2023-03-14T10:22:02;1.02;;;0.60;;
39958;SDS011;25639;53.634;9.880;2023-03-14T10:24:33;1.02;;;0.50;;
39958;SDS011;25639;53.634;9.880;2023-03-14T10:33:10;2.50;;;0.40;;
39958;SDS011;25639;53.634;9.880;2023-03-14T10:35:44;2.30;;;0.30;;
39958;SDS011;25639;53.634;9.880;2023-03-14T10:38:15;1.65;;;0.50;;
39958;SDS011;25639;53.634;9.880;2023-03-14T10:40:46;1.05;;;0.28;;
39958;SDS011;25639;53.634;9.880;2023-03-14T10:43:17;2.33;;;0.20;;
39958;SDS011;25639;53.634;9.880;2023-03-14T10:45:50;2.22;;;0.35;;
39958;SDS011;25639;53.634;9.880;2023-03-14T10:53:16;0.30;;;0.30;;
39958;SDS011;25639;53.634;9.880;2023-03-14T10:55:43;1.70;;;0.20;;
39958;SDS011;25639;53.634;9.880;2023-03-14T10:58:27;1.98;;;0.30;;
39958;SDS011;25639;53.634;9.880;2023-03-14T11:00:57;1.13;;;0.30;;
39958;SDS011;25639;53.634;9.880;2023-03-14T11:03:31;0.88;;;0.32;;
39958;SDS011;25639;53.634;9.880;2023-03-14T11:06:03;3.60;;;0.30;;
39958;SDS011;25639;53.634;9.880;2023-03-14T11:08:39;2.28;;;0.50;;
39958;SDS011;25639;53.634;9.880;2023-03-14T11:11:18;1.52;;;0.47;;
39958;SDS011;25639;53.634;9.880;2023-03-14T11:13:51;1.70;;;0.40;;
39958;SDS011;25639;53.634;9.880;2023-03-14T11:16:34;6.88;;;0.60;;
39958;SDS011;25639;53.634;9.880;2023-03-14T11:21:59;6.65;;;1.35;;
39958;SDS011;25639;53.634;9.880;2023-03-14T11:29:55;3.42;;;0.80;;
39958;SDS011;25639;53.634;9.880;2023-03-14T11:32:26;2.85;;;0.75;;
39958;SDS011;25639;53.634;9.880;2023-03-14T11:35:03;9.02;;;1.20;;
39958;SDS011;25639;53.634;9.880;2023-03-14T11:37:43;5.00;;;0.68;;
39958;SDS011;25639;53.634;9.880;2023-03-14T11:40:18;6.22;;;1.42;;
39958;SDS011;25639;53.634;9.880;2023-03-14T11:42:47;9.02;;;0.98;;
39958;SDS011;25639;53.634;9.880;2023-03-14T11:45:23;5.85;;;1.15;;
39958;SDS011;25639;53.634;9.880;2023-03-14T11:47:59;7.13;;;1.15;;
39958;SDS011;25639;53.634;9.880;2023-03-14T11:50:38;8.45;;;1.13;;
39958;SDS011;25639;53.634;9.880;2023-03-14T11:53:34;7.25;;;1.20;;
39958;SDS011;25639;53.634;9.880;2023-03-14T11:56:13;6.45;;;1.10;;
39958;SDS011;25639;53.634;9.880;2023-03-14T11:59:05;11.20;;;1.13;;
39958;SDS011;25639;53.634;9.880;2023-03-14T12:01:57;12.52;;;1.65;;
39958;SDS011;25639;53.634;9.880;2023-03-14T12:07:21;8.70;;;1.17;;
39958;SDS011;25639;53.634;9.880;2023-03-14T12:09:50;9.48;;;1.25;;
39958;SDS011;25639;53.634;9.880;2023-03-14T12:12:21;8.82;;;1.45;;
39958;SDS011;25639;53.634;9.880;2023-03-14T12:14:54;5.97;;;1.30;;
39958;SDS011;25639;53.634;9.880;2023-03-14T12:17:22;10.88;;;1.35;;
39958;SDS011;25639;53.634;9.880;2023-03-14T12:20:00;15.77;;;1.70;;
39958;SDS011;25639;53.634;9.880;2023-03-14T12:22:32;13.48;;;2.90;;
39958;SDS011;25639;53.634;9.880;2023-03-14T12:30:29;11.38;;;1.33;;
39958;SDS011;25639;53.634;9.880;2023-03-14T12:35:36;9.07;;;1.45;;
39958;SDS011;25639;53.634;9.880;2023-03-14T12:38:03;8.75;;;1.65;;
39958;SDS011;25639;53.634;9.880;2023-03-14T12:40:34;14.10;;;2.30;;
39958;SDS011;25639;53.634;9.880;2023-03-14T12:43:10;10.43;;;2.03;;
39958;SDS011;25639;53.634;9.880;2023-03-14T12:48:41;10.35;;;1.60;;
39958;SDS011;25639;53.634;9.880;2023-03-14T12:51:54;15.23;;;1.58;;
39958;SDS011;25639;53.634;9.880;2023-03-14T12:56:46;11.18;;;1.70;;
39958;SDS011;25639;53.634;9.880;2023-03-14T13:01:54;12.95;;;1.98;;
39958;SDS011;25639;53.634;9.880;2023-03-14T13:04:27;16.45;;;2.00;;
39958;SDS011;25639;53.634;9.880;2023-03-14T13:07:38;22.85;;;2.75;;
39958;SDS011;25639;53.634;9.880;2023-03-14T13:10:30;26.52;;;2.78;;
39958;SDS011;25639;53.634;9.880;2023-03-14T13:13:11;17.47;;;4.00;;
39958;SDS011;25639;53.634;9.880;2023-03-14T13:15:43;23.90;;;2.38;;
39958;SDS011;25639;53.634;9.880;2023-03-14T13:18:12;15.48;;;2.53;;
39958;SDS011;25639;53.634;9.880;2023-03-14T13:20:48;18.83;;;2.92;;
39958;SDS011;25639;53.634;9.880;2023-03-14T13:23:24;18.73;;;2.08;;
39958;SDS011;25639;53.634;9.880;2023-03-14T13:25:53;10.50;;;1.77;;
39958;SDS011;25639;53.634;9.880;2023-03-14T13:28:20;15.82;;;1.73;;
39958;SDS011;25639;53.634;9.880;2023-03-14T13:30:47;12.73;;;1.90;;
39958;SDS011;25639;53.634;9.880;2023-03-14T13:33:23;19.67;;;3.30;;
39958;SDS011;25639;53.634;9.880;2023-03-14T13:35:54;10.52;;;1.52;;
39958;SDS011;25639;53.634;9.880;2023-03-14T13:38:32;13.48;;;2.28;;
39958;SDS011;25639;53.634;9.880;2023-03-14T13:41:06;15.40;;;1.73;;
39958;SDS011;25639;53.634;9.880;2023-03-14T13:43:40;14.63;;;2.15;;
39958;SDS011;25639;53.634;9.880;2023-03-14T13:46:15;14.48;;;1.75;;
39958;SDS011;25639;53.634;9.880;2023-03-14T13:51:30;18.92;;;2.10;;
39958;SDS011;25639;53.634;9.880;2023-03-14T13:54:00;12.90;;;1.77;;
39958;SDS011;25639;53.634;9.880;2023-03-14T13:56:30;20.65;;;2.08;;
39958;SDS011;25639;53.634;9.880;2023-03-14T13:59:03;16.58;;;2.35;;
39958;SDS011;25639;53.634;9.880;2023-03-14T14:01:32;15.82;;;3.25;;
39958;SDS011;25639;53.634;9.880;2023-03-14T14:04:13;12.70;;;1.90;;
39958;SDS011;25639;53.634;9.880;2023-03-14T14:06:46;17.45;;;1.98;;
39958;SDS011;25639;53.634;9.880;2023-03-14T14:09:27;19.58;;;2.30;;
39958;SDS011;25639;53.634;9.880;2023-03-14T14:12:03;12.20;;;2.38;;
39958;SDS011;25639;53.634;9.880;2023-03-14T14:14:31;9.63;;;1.83;;
39958;SDS011;25639;53.634;9.880;2023-03-14T14:17:00;12.68;;;2.00;;
39958;SDS011;25639;53.634;9.880;2023-03-14T14:19:29;20.90;;;2.45;;
39958;SDS011;25639;53.634;9.880;2023-03-14T14:21:57;17.25;;;1.80;;
39958;SDS011;25639;53.634;9.880;2023-03-14T14:24:24;19.63;;;2.03;;
39958;SDS011;25639;53.634;9.880;2023-03-14T14:26:54;13.18;;;1.95;;
39958;SDS011;25639;53.634;9.880;2023-03-14T14:29:29;10.75;;;1.83;;
39958;SDS011;25639;53.634;9.880;2023-03-14T14:34:45;13.07;;;1.58;;
39958;SDS011;25639;53.634;9.880;2023-03-14T14:37:31;11.43;;;1.77;;
39958;SDS011;25639;53.634;9.880;2023-03-14T14:40:22;6.70;;;1.55;;
39958;SDS011;25639;53.634;9.880;2023-03-14T14:42:49;9.13;;;1.13;;
39958;SDS011;25639;53.634;9.880;2023-03-14T14:45:19;12.05;;;1.77;;
39958;SDS011;25639;53.634;9.880;2023-03-14T14:50:31;9.68;;;1.63;;
39958;SDS011;25639;53.634;9.880;2023-03-14T14:52:58;8.93;;;1.60;;
39958;SDS011;25639;53.634;9.880;2023-03-14T14:55:30;8.80;;;1.40;;
39958;SDS011;25639;53.634;9.880;2023-03-14T14:58:09;16.27;;;1.90;;
39958;SDS011;25639;53.634;9.880;2023-03-14T15:00:39;11.73;;;1.50;;
39958;SDS011;25639;53.634;9.880;2023-03-14T15:03:10;20.52;;;3.80;;
39958;SDS011;25639;53.634;9.880;2023-03-14T15:05:41;15.55;;;1.73;;
39958;SDS011;25639;53.634;9.880;2023-03-14T15:08:09;17.42;;;2.17;;
39958;SDS011;25639;53.634;9.880;2023-03-14T15:10:36;18.45;;;2.65;;
39958;SDS011;25639;53.634;9.880;2023-03-14T15:13:01;11.98;;;1.98;;
39958;SDS011;25639;53.634;9.880;2023-03-14T15:15:27;12.73;;;1.83;;
39958;SDS011;25639;53.634;9.880;2023-03-14T15:17:52;15.88;;;1.90;;
39958;SDS011;25639;53.634;9.880;2023-03-14T15:20:17;17.33;;;2.08;;
39958;SDS011;25639;53.634;9.880;2023-03-14T15:22:44;17.20;;;2.25;;
39958;SDS011;25639;53.634;9.880;2023-03-14T15:25:11;19.77;;;2.35;;
39958;SDS011;25639;53.634;9.880;2023-03-14T15:27:37;14.85;;;2.03;;
39958;SDS011;25639;53.634;9.880;2023-03-14T15:30:09;15.18;;;1.90;;
39958;SDS011;25639;53.634;9.880;2023-03-14T15:32:36;16.42;;;2.83;;
39958;SDS011;25639;53.634;9.880;2023-03-14T15:35:01;15.23;;;1.95;;
39958;SDS011;25639;53.634;9.880;2023-03-14T15:37:28;19.67;;;2.20;;
39958;SDS011;25639;53.634;9.880;2023-03-14T15:39:54;17.30;;;1.65;;
39958;SDS011;25639;53.634;9.880;2023-03-14T15:42:22;21.42;;;2.45;;
39958;SDS011;25639;53.634;9.880;2023-03-14T15:44:48;9.82;;;1.50;;
39958;SDS011;25639;53.634;9.880;2023-03-14T15:47:16;18.27;;;1.65;;
39958;SDS011;25639;53.634;9.880;2023-03-14T15:49:42;13.63;;;1.75;;